Time;durP1;ratioP1;P1;durP2;ratioP2;P2;SDS_P1;SDS_P2;PMS_P1;PMS_P2;Temp;Humidity;BMP_temperature;BMP_pressure;BME280_temperature;BME280_humidity;BME280_pressure;Samples;Min_cycle;Max_cycle;Signal;HPM_P1;HPM_P2
2022/01/19 00:02:23;;;;;;;12.93;12.43;;;19.10;74.50;;;;;;5030910;28;20476;-45
2022/01/19 00:04:50;;;;;;;12.40;11.90;;;19.10;74.80;;;;;;5032044;28;20453;-44
2022/01/19 00:07:17;;;;;;;13.23;12.83;;;19.10;75.10;;;;;;5034930;28;20452;-46
2022/01/19 00:09:45;;;;;;;13.27;12.70;;;19.00;75.30;;;;;;5034954;28;20452;-48
2022/01/19 00:12:12;;;;;;;12.77;12.37;;;19.00;75.60;;;;;;5034378;28;20475;-44
2022/01/19 00:14:38;;;;;;;12.47;12.07;;;19.00;76.40;;;;;;5034552;28;20502;-45
2022/01/19 00:17:05;;;;;;;12.33;11.90;;;19.00;75.90;;;;;;5034763;28;20444;-45
2022/01/19 00:19:32;;;;;;;12.53;12.13;;;18.90;76.00;;;;;;5034659;28;20457;-50
2022/01/19 00:21:58;;;;;;;12.53;12.13;;;19.00;76.00;;;;;;5034393;28;20489;-45
2022/01/19 00:24:25;;;;;;;12.70;12.20;;;19.00;75.90;;;;;;5034428;28;20475;-45
2022/01/19 00:26:53;;;;;;;12.20;11.80;;;19.00;75.60;;;;;;5034451;28;20445;-47
2022/01/19 00:29:20;;;;;;;12.43;12.03;;;19.00;75.60;;;;;;5034464;28;20502;-49
2022/01/19 00:31:46;;;;;;;12.43;11.93;;;19.00;75.60;;;;;;5034198;28;20978;-47
2022/01/19 00:34:13;;;;;;;12.43;12.00;;;18.90;75.80;;;;;;5034109;28;20849;-45
2022/01/19 00:36:40;;;;;;;12.73;12.23;;;18.90;76.00;;;;;;5034455;28;20786;-46
2022/01/19 00:39:06;;;;;;;13.30;12.80;;;18.80;76.10;;;;;;5034461;28;20448;-47
2022/01/19 00:41:33;;;;;;;12.73;12.23;;;18.80;76.50;;;;;;5034019;28;20567;-47
2022/01/19 00:44:01;;;;;;;13.13;12.70;;;18.80;76.60;;;;;;5033997;28;20452;-45
2022/01/19 00:46:28;;;;;;;12.93;12.43;;;18.70;76.70;;;;;;5034155;28;20449;-46
2022/01/19 00:48:54;;;;;;;13.23;12.73;;;18.70;77.10;;;;;;5034120;28;20464;-50
2022/01/19 00:51:21;;;;;;;12.87;12.37;;;18.60;77.30;;;;;;5033908;28;20878;-44
2022/01/19 00:53:48;;;;;;;12.43;11.97;;;18.60;77.70;;;;;;5033865;28;20449;-47
2022/01/19 00:56:14;;;;;;;12.40;12.00;;;18.50;77.70;;;;;;5033621;28;20721;-45
2022/01/19 00:58:41;;;;;;;12.77;12.33;;;18.60;78.00;;;;;;5034166;28;20452;-47
2022/01/19 01:01:09;;;;;;;12.57;12.10;;;18.50;77.90;;;;;;5033776;28;20485;-45
2022/01/19 01:03:36;;;;;;;12.33;11.87;;;18.50;78.20;;;;;;5033612;28;20476;-44
2022/01/19 01:06:03;;;;;;;12.10;11.60;;;18.50;78.20;;;;;;5033591;28;20453;-46
2022/01/19 01:08:29;;;;;;;13.13;12.63;;;18.40;78.40;;;;;;5033811;28;20837;-48
2022/01/19 01:10:56;;;;;;;12.90;12.30;;;18.40;78.40;;;;;;5033696;28;20472;-49
2022/01/19 01:13:29;;;;;;;12.77;12.37;;;18.40;78.50;;;;;;5033618;28;20963;-49
2022/01/19 01:16:04;;;;;;;12.33;11.93;;;18.40;78.80;;;;;;5033514;28;20453;-47
2022/01/19 01:18:34;;;;;;;12.10;11.70;;;18.40;78.60;;;;;;5033761;28;20451;-44
2022/01/19 01:21:01;;;;;;;12.47;12.07;;;18.40;78.90;;;;;;5033770;28;20489;-45
2022/01/19 01:23:32;;;;;;;12.60;12.20;;;18.30;78.80;;;;;;5033145;28;20478;-46
2022/01/19 01:25:59;;;;;;;13.50;12.90;;;18.30;78.80;;;;;;5033394;28;20536;-46
2022/01/19 01:28:25;;;;;;;12.83;12.33;;;18.30;79.90;;;;;;5033398;28;20452;-50
2022/01/19 01:30:54;;;;;;;12.90;12.40;;;18.30;79.10;;;;;;5033201;28;20465;-46
2022/01/19 01:33:21;;;;;;;13.00;12.57;;;18.20;79.30;;;;;;5032939;28;20452;-48
2022/01/19 01:35:49;;;;;;;12.63;12.13;;;18.20;79.60;;;;;;5033455;28;20452;-50
2022/01/19 01:38:16;;;;;;;12.77;12.27;;;18.20;79.70;;;;;;5033249;28;20830;-48
2022/01/19 01:40:43;;;;;;;12.37;11.90;;;18.10;80.00;;;;;;5033051;28;20459;-50
2022/01/19 01:43:09;;;;;;;12.53;12.03;;;18.10;80.40;;;;;;5032703;28;20977;-45
2022/01/19 01:45:40;;;;;;;12.37;11.97;;;18.20;80.70;;;;;;5033014;28;20453;-46
2022/01/19 01:48:11;;;;;;;12.07;11.67;;;18.20;80.70;;;;;;5033159;28;20449;-49
2022/01/19 01:53:28;;;;;;;13.20;12.70;;;18.10;80.90;;;;;;5033296;28;20900;-48
2022/01/19 01:56:01;;;;;;;12.40;11.90;;;18.10;80.90;;;;;;5032990;28;20799;-50
2022/01/19 01:58:29;;;;;;;12.60;12.20;;;18.10;81.20;;;;;;5032723;28;20456;-55
2022/01/19 02:00:57;;;;;;;12.90;12.40;;;18.10;81.10;;;;;;5032745;28;20480;-53
2022/01/19 02:03:24;;;;;;;12.40;12.00;;;18.10;81.30;;;;;;5031930;28;20495;-52
2022/01/19 02:06:09;;;;;;;12.87;12.37;;;18.00;81.10;;;;;;5032634;28;20452;-48
2022/01/19 02:08:41;;;;;;;11.93;11.53;;;18.00;81.40;;;;;;5032724;28;20449;-51
2022/01/19 02:11:34;;;;;;;12.40;11.90;;;17.90;82.00;;;;;;5032557;28;20462;-55
2022/01/19 02:22:38;;;;;;;13.93;13.33;;;17.90;83.60;;;;;;5031920;28;20484;-53
2022/01/19 02:25:05;;;;;;;12.60;12.10;;;17.90;83.80;;;;;;5032366;28;20484;-52
2022/01/19 02:41:11;;;;;;;13.30;12.80;;;17.80;85.30;;;;;;5031822;28;20484;-50
2022/01/19 02:43:37;;;;;;;12.10;11.70;;;17.80;84.80;;;;;;5031769;28;20461;-48
2022/01/19 02:51:34;;;;;;;12.30;11.80;;;17.80;85.00;;;;;;5012003;28;20453;-54
2022/01/19 02:54:00;;;;;;;13.00;12.60;;;17.80;84.90;;;;;;5011997;28;20446;-54
2022/01/19 02:56:32;;;;;;;12.60;12.10;;;17.90;84.60;;;;;;5012243;28;20454;-55
2022/01/19 02:59:10;;;;;;;12.10;11.70;;;17.80;84.70;;;;;;5012091;28;20453;-51
2022/01/19 03:09:48;;;;;;;13.10;12.60;;;17.70;85.30;;;;;;5018416;28;20436;-50
2022/01/19 03:12:15;;;;;;;12.00;11.60;;;17.70;85.50;;;;;;5031104;28;20454;-48
2022/01/19 03:14:42;;;;;;;13.07;12.57;;;17.80;85.50;;;;;;5031541;28;20441;-53
2022/01/19 03:17:11;;;;;;;12.40;12.00;;;17.60;86.10;;;;;;5031497;28;20452;-49
2022/01/19 03:19:37;;;;;;;12.60;12.17;;;17.60;86.80;;;;;;5031324;28;20475;-54
2022/01/19 03:22:06;;;;;;;12.57;11.97;;;17.50;87.10;;;;;;5031287;28;20653;-55
2022/01/19 03:24:38;;;;;;;12.43;12.03;;;17.50;87.70;;;;;;5031309;28;20448;-50
2022/01/19 03:27:05;;;;;;;12.43;12.03;;;17.60;87.80;;;;;;5031542;28;20457;-51
2022/01/19 03:29:32;;;;;;;11.57;11.20;;;17.50;87.60;;;;;;5031190;28;20449;-50
2022/01/19 03:31:58;;;;;;;13.20;12.70;;;17.60;87.90;;;;;;5031159;28;20992;-52
2022/01/19 03:34:25;;;;;;;13.03;12.63;;;17.50;87.80;;;;;;5031489;28;20942;-53
2022/01/19 03:36:51;;;;;;;12.30;11.90;;;17.50;87.80;;;;;;5031475;28;20475;-53
2022/01/19 03:39:19;;;;;;;12.20;11.80;;;17.50;87.90;;;;;;5031162;28;20811;-57
2022/01/19 03:41:46;;;;;;;11.93;11.53;;;17.60;87.90;;;;;;5035207;28;20484;-53
2022/01/19 03:44:13;;;;;;;12.27;11.87;;;17.50;88.20;;;;;;5035396;28;20465;-50
2022/01/19 03:46:55;;;;;;;12.37;11.83;;;17.50;88.40;;;;;;5035230;28;20445;-50
2022/01/19 03:49:24;;;;;;;12.40;12.00;;;17.50;88.40;;;;;;5035039;28;20484;-51
2022/01/19 03:51:51;;;;;;;11.47;11.13;;;17.50;87.80;;;;;;5034969;28;20480;-51
2022/01/19 03:54:20;;;;;;;11.73;11.40;;;17.50;88.10;;;;;;5035159;28;20452;-50
2022/01/19 03:56:47;;;;;;;13.03;12.53;;;17.60;88.00;;;;;;5035136;28;20457;-54
2022/01/19 03:59:14;;;;;;;12.27;11.87;;;17.40;88.50;;;;;;5034872;28;20456;-54
2022/01/19 04:01:40;;;;;;;12.10;11.70;;;17.40;89.30;;;;;;5035036;28;20484;-51
2022/01/19 04:04:28;;;;;;;12.60;12.10;;;17.50;89.70;;;;;;5035071;28;20441;-50
2022/01/19 04:07:00;;;;;;;13.80;13.30;;;17.50;89.20;;;;;;5034947;28;20459;-51
2022/01/19 04:09:30;;;;;;;12.50;12.00;;;17.50;89.20;;;;;;5034740;28;20463;-48
2022/01/19 04:11:56;;;;;;;12.10;11.70;;;17.60;88.70;;;;;;5034613;28;20461;-48
2022/01/19 04:14:25;;;;;;;12.50;12.10;;;17.60;88.80;;;;;;5034772;28;20457;-50
2022/01/19 04:16:54;;;;;;;12.27;11.87;;;17.60;88.80;;;;;;5034763;28;20867;-48
2022/01/19 04:19:31;;;;;;;12.53;12.03;;;17.60;88.90;;;;;;5034715;28;20449;-48
2022/01/19 04:21:59;;;;;;;11.90;11.60;;;17.50;89.10;;;;;;5034693;28;20488;-52
2022/01/19 04:24:28;;;;;;;12.50;12.10;;;17.60;89.30;;;;;;5034622;28;20440;-48
2022/01/19 04:29:40;;;;;;;12.53;12.03;;;17.70;88.90;;;;;;5034191;28;20526;-50
2022/01/19 04:32:11;;;;;;;12.27;11.77;;;17.80;88.80;;;;;;5034251;28;20904;-49
2022/01/19 04:34:39;;;;;;;12.43;12.03;;;17.70;87.90;;;;;;5034548;28;20954;-51
2022/01/19 04:48:22;;;;;;;11.80;11.40;;;17.70;89.40;;;;;;5033802;28;20448;-53
2022/01/19 05:02:03;;;;;;;11.60;11.30;;;17.60;90.00;;;;;;5033688;28;20877;-48
2022/01/19 05:04:35;;;;;;;13.10;12.67;;;17.60;90.10;;;;;;5033856;28;20449;-48
2022/01/19 05:07:13;;;;;;;13.17;12.77;;;17.60;90.10;;;;;;5033805;28;20536;-50
2022/01/19 05:09:58;;;;;;;13.03;12.63;;;17.50;90.20;;;;;;5033537;28;20539;-49
2022/01/19 05:15:11;;;;;;;13.30;12.80;;;17.50;90.20;;;;;;5033847;28;20468;-50
2022/01/19 05:17:38;;;;;;;12.73;12.33;;;17.50;90.30;;;;;;5033625;28;20457;-48
2022/01/19 05:20:07;;;;;;;13.00;12.60;;;17.50;90.50;;;;;;5033245;28;20456;-50
2022/01/19 05:22:35;;;;;;;15.03;14.27;;;17.50;90.70;;;;;;5033217;28;20484;-48
2022/01/19 05:25:02;;;;;;;17.00;15.20;;;17.60;95.70;;;;;;5033509;28;20815;-50
2022/01/19 05:27:30;;;;;;;17.17;15.40;;;17.70;99.90;;;;;;5033513;28;20445;-49
2022/01/19 05:29:57;;;;;;;15.60;14.40;;;17.80;99.90;;;;;;5033245;28;20512;-51
2022/01/19 05:32:24;;;;;;;15.20;13.67;;;17.80;99.90;;;;;;5033160;28;20477;-49
2022/01/19 05:34:51;;;;;;;27.73;15.70;;;17.90;99.90;;;;;;5033269;28;20460;-49
2022/01/19 05:37:18;;;;;;;17.13;11.33;;;18.00;99.90;;;;;;5033264;28;20857;-55
2022/01/19 05:39:44;;;;;;;17.73;9.83;;;18.00;99.90;;;;;;5033026;28;20449;-53
2022/01/19 05:42:14;;;;;;;17.67;9.80;;;18.10;99.90;;;;;;5032728;28;20488;-56
2022/01/19 05:44:43;;;;;;;20.10;9.87;;;18.00;99.90;;;;;;5033215;28;20810;-56
2022/01/19 05:47:10;;;;;;;13.40;9.43;;;18.00;99.90;;;;;;5032874;28;20491;-49
2022/01/19 05:49:37;;;;;;;18.00;10.67;;;17.90;99.90;;;;;;5032972;28;20819;-49
2022/01/19 05:52:05;;;;;;;13.90;11.90;;;18.30;99.90;;;;;;5032608;28;20484;-50
2022/01/19 05:54:31;;;;;;;13.93;12.50;;;18.90;99.90;;;;;;5032923;28;20452;-51
2022/01/19 05:56:58;;;;;;;15.27;13.70;;;19.40;99.90;;;;;;5032611;28;20449;-55
2022/01/19 05:59:25;;;;;;;13.47;12.47;;;19.70;99.90;;;;;;5033020;28;20528;-46
2022/01/19 06:01:54;;;;;;;16.13;14.30;;;19.90;99.90;;;;;;5032015;28;20469;-49
2022/01/19 06:04:21;;;;;;;15.97;14.33;;;20.00;99.90;;;;;;5030944;28;20775;-52
2022/01/19 06:06:49;;;;;;;19.53;17.40;;;20.10;99.90;;;;;;5032670;28;20452;-47
2022/01/19 06:09:33;;;;;;;15.33;14.00;;;20.20;99.90;;;;;;5032598;28;20445;-49
2022/01/19 06:11:59;;;;;;;15.37;14.30;;;20.30;99.90;;;;;;5032280;28;20476;-47
2022/01/19 06:14:26;;;;;;;15.33;13.93;;;20.30;99.90;;;;;;5032484;28;20449;-47
2022/01/19 06:16:54;;;;;;;15.20;14.20;;;20.30;99.90;;;;;;5032498;28;20458;-52
2022/01/19 06:19:21;;;;;;;18.30;16.53;;;20.30;99.90;;;;;;5032523;28;20449;-54
2022/01/19 06:21:47;;;;;;;15.43;14.47;;;20.30;99.90;;;;;;5032163;28;20523;-48
2022/01/19 06:24:15;;;;;;;15.80;14.40;;;20.30;99.90;;;;;;5032215;28;20445;-47
2022/01/19 06:26:41;;;;;;;16.30;14.83;;;20.30;99.90;;;;;;5032220;28;20449;-47
2022/01/19 06:29:08;;;;;;;15.93;15.00;;;20.30;99.90;;;;;;5032222;28;20441;-47
2022/01/19 06:31:35;;;;;;;15.70;14.40;;;20.30;99.90;;;;;;5031992;28;20461;-47
2022/01/19 06:34:03;;;;;;;17.00;15.53;;;20.30;99.90;;;;;;5032105;28;20943;-47
2022/01/19 06:36:29;;;;;;;15.90;14.60;;;20.30;99.90;;;;;;5032117;28;20507;-48
2022/01/19 06:38:56;;;;;;;15.63;14.13;;;20.20;99.90;;;;;;5032060;28;20456;-47
2022/01/19 06:41:23;;;;;;;15.10;14.13;;;20.30;99.90;;;;;;5032066;28;20542;-47
2022/01/19 06:43:50;;;;;;;15.77;14.53;;;20.30;99.90;;;;;;5031668;28;20484;-48
2022/01/19 06:46:17;;;;;;;15.07;13.97;;;20.30;99.90;;;;;;5032096;28;20456;-46
2022/01/19 06:48:43;;;;;;;14.53;13.43;;;20.20;99.70;;;;;;5031972;28;20808;-51
2022/01/19 06:51:11;;;;;;;14.73;14.07;;;20.20;99.50;;;;;;5031679;28;20484;-46
2022/01/19 06:53:38;;;;;;;15.80;14.70;;;20.20;99.00;;;;;;5031603;28;20452;-52
2022/01/19 06:56:05;;;;;;;14.87;14.07;;;20.10;98.70;;;;;;5031907;28;20503;-47
2022/01/19 06:58:32;;;;;;;14.60;13.80;;;20.00;98.60;;;;;;5031841;28;20445;-50
2022/01/19 07:00:58;;;;;;;15.13;14.13;;;20.00;98.20;;;;;;5031702;28;20519;-47
2022/01/19 07:03:25;;;;;;;14.87;14.10;;;20.00;98.10;;;;;;5031405;28;20481;-46
2022/01/19 07:05:52;;;;;;;15.37;14.30;;;20.00;97.50;;;;;;5031635;28;20554;-49
2022/01/19 07:08:20;;;;;;;15.43;14.50;;;20.10;97.40;;;;;;5031656;28;20821;-49
2022/01/19 07:10:47;;;;;;;15.10;14.20;;;20.00;96.90;;;;;;5031507;28;20512;-46
2022/01/19 07:13:13;;;;;;;14.07;13.43;;;20.00;96.60;;;;;;5031295;28;20437;-47
2022/01/19 07:15:40;;;;;;;13.23;12.30;;;20.00;96.30;;;;;;5031527;28;20457;-47
2022/01/19 07:18:07;;;;;;;14.50;13.57;;;20.00;96.10;;;;;;5031572;28;20826;-47
2022/01/19 07:20:34;;;;;;;14.97;14.17;;;20.00;95.80;;;;;;5031439;28;20460;-47
2022/01/19 07:23:01;;;;;;;13.67;12.80;;;19.90;95.40;;;;;;5031279;28;20485;-47
2022/01/19 07:25:31;;;;;;;13.70;12.80;;;19.90;95.20;;;;;;5031408;28;20939;-48
2022/01/19 07:27:58;;;;;;;14.20;13.50;;;19.90;95.10;;;;;;5031433;28;20483;-47
2022/01/19 07:30:25;;;;;;;10.37;9.87;;;19.80;94.80;;;;;;5031460;28;20457;-48
2022/01/19 07:32:52;;;;;;;11.50;10.70;;;19.80;94.90;;;;;;5031034;28;20437;-49
2022/01/19 07:35:19;;;;;;;10.80;10.37;;;19.70;94.90;;;;;;5031566;28;20446;-47
2022/01/19 07:37:46;;;;;;;11.67;11.10;;;19.70;94.70;;;;;;5031434;28;20457;-49
2022/01/19 07:40:14;;;;;;;12.50;11.50;;;19.60;94.50;;;;;;5031279;28;20445;-52
2022/01/19 07:42:42;;;;;;;12.57;11.73;;;19.60;94.40;;;;;;5030960;28;20489;-50
2022/01/19 07:45:09;;;;;;;13.10;12.23;;;19.60;94.30;;;;;;5031166;28;20939;-52
2022/01/19 07:47:36;;;;;;;11.60;11.07;;;19.50;94.10;;;;;;5031243;28;20441;-46
2022/01/19 07:50:04;;;;;;;12.37;11.67;;;19.40;94.00;;;;;;5031303;28;20950;-48
2022/01/19 07:52:30;;;;;;;13.13;12.40;;;19.30;94.10;;;;;;5031381;28;20523;-45
2022/01/19 07:54:57;;;;;;;12.17;11.50;;;19.30;94.10;;;;;;5031289;28;20454;-43
2022/01/19 07:57:24;;;;;;;13.13;12.53;;;19.20;94.10;;;;;;5031141;28;20452;-47
2022/01/19 07:59:52;;;;;;;11.83;11.20;;;19.20;94.10;;;;;;5031279;28;20506;-45
2022/01/19 08:02:18;;;;;;;12.13;11.63;;;19.10;94.20;;;;;;5030693;28;20488;-45
2022/01/19 08:04:46;;;;;;;12.40;11.70;;;19.00;94.10;;;;;;5031171;28;20445;-45
2022/01/19 08:07:12;;;;;;;13.67;13.03;;;18.90;94.10;;;;;;5031040;28;20452;-46
2022/01/19 08:09:40;;;;;;;11.63;11.13;;;18.90;93.70;;;;;;5031062;28;20769;-43
2022/01/19 08:12:08;;;;;;;12.40;11.70;;;18.80;94.00;;;;;;5030716;28;20560;-47
2022/01/19 08:14:34;;;;;;;11.77;11.10;;;18.80;94.20;;;;;;5030909;28;20441;-46
2022/01/19 08:17:03;;;;;;;12.63;12.03;;;18.80;94.30;;;;;;5030847;28;20437;-46
2022/01/19 08:19:29;;;;;;;12.80;12.10;;;18.70;94.00;;;;;;5030963;28;20472;-46
2022/01/19 08:21:56;;;;;;;12.67;11.97;;;18.70;94.20;;;;;;5030713;28;20473;-52
2022/01/19 08:24:23;;;;;;;13.93;13.37;;;18.60;94.20;;;;;;5030819;28;20845;-50
2022/01/19 08:26:49;;;;;;;13.80;13.20;;;18.50;94.10;;;;;;5033571;28;20452;-51
2022/01/19 08:29:16;;;;;;;11.90;11.40;;;18.50;94.30;;;;;;5034486;28;20456;-51
2022/01/19 08:31:43;;;;;;;12.30;11.70;;;18.40;94.30;;;;;;5034172;28;20480;-47
2022/01/19 08:34:11;;;;;;;11.83;11.23;;;18.30;94.40;;;;;;5034385;28;20507;-47
2022/01/19 08:36:38;;;;;;;12.73;12.20;;;18.30;94.70;;;;;;5034373;28;20445;-50
2022/01/19 08:39:07;;;;;;;12.90;12.40;;;18.20;94.70;;;;;;5034427;28;20806;-51
2022/01/19 08:41:33;;;;;;;11.80;11.30;;;18.20;94.60;;;;;;5034142;28;20498;-47
2022/01/19 08:44:00;;;;;;;12.13;11.53;;;18.20;94.70;;;;;;5034133;28;20484;-47
2022/01/19 08:46:27;;;;;;;12.67;12.20;;;18.10;94.80;;;;;;5034217;28;20456;-49
2022/01/19 08:48:53;;;;;;;12.40;11.90;;;18.10;94.90;;;;;;5034178;28;20452;-50
2022/01/19 08:51:22;;;;;;;11.00;10.63;;;18.10;94.70;;;;;;5033879;28;20881;-54
2022/01/19 08:53:48;;;;;;;12.37;11.83;;;18.00;94.70;;;;;;5033895;28;20822;-55
2022/01/19 08:56:15;;;;;;;11.50;11.10;;;18.00;94.80;;;;;;5033987;28;20452;-53
2022/01/19 08:58:42;;;;;;;11.87;11.47;;;18.00;94.70;;;;;;5033974;28;20449;-51
2022/01/19 09:01:08;;;;;;;11.47;11.03;;;18.00;94.80;;;;;;5033874;28;20465;-51
2022/01/19 09:03:35;;;;;;;10.73;10.23;;;18.00;95.00;;;;;;5033584;28;20559;-50
2022/01/19 09:06:02;;;;;;;10.17;9.83;;;18.00;94.50;;;;;;5033782;28;20445;-50
2022/01/19 09:08:31;;;;;;;11.30;10.90;;;18.00;94.50;;;;;;5033889;28;20449;-53
2022/01/19 09:10:58;;;;;;;11.57;11.27;;;17.90;94.50;;;;;;5033714;28;20564;-52
2022/01/19 09:13:25;;;;;;;10.60;10.20;;;17.90;94.70;;;;;;5033635;28;20902;-55
2022/01/19 09:15:52;;;;;;;11.40;11.00;;;17.90;94.50;;;;;;5033657;28;20930;-47
2022/01/19 09:18:19;;;;;;;12.40;11.83;;;17.80;94.50;;;;;;5033736;28;20869;-51
2022/01/19 09:20:45;;;;;;;11.23;10.90;;;17.80;94.40;;;;;;5033556;28;20475;-48
2022/01/19 09:23:13;;;;;;;11.70;11.20;;;17.80;94.50;;;;;;5033220;28;20473;-47
2022/01/19 09:25:41;;;;;;;11.10;10.70;;;17.80;94.10;;;;;;5033553;28;20480;-53
2022/01/19 09:28:08;;;;;;;11.00;10.53;;;17.80;94.30;;;;;;5033372;28;20453;-50
2022/01/19 09:30:36;;;;;;;11.30;10.90;;;17.80;94.30;;;;;;5033200;28;20938;-53
2022/01/19 09:33:08;;;;;;;12.37;11.87;;;17.80;94.30;;;;;;5033235;28;20445;-49
2022/01/19 09:35:52;;;;;;;11.97;11.57;;;17.80;93.90;;;;;;5033366;28;20518;-53
2022/01/19 09:38:20;;;;;;;11.13;10.73;;;17.70;94.10;;;;;;5032085;28;20531;-50
2022/01/19 09:40:48;;;;;;;11.97;11.40;;;17.70;94.00;;;;;;5033096;28;20828;-50
2022/01/19 09:43:17;;;;;;;11.80;11.20;;;17.80;93.80;;;;;;5032928;28;20485;-50
2022/01/19 09:45:44;;;;;;;11.43;11.13;;;17.80;93.80;;;;;;5033130;28;20492;-50
2022/01/19 09:48:12;;;;;;;11.53;11.23;;;17.80;93.50;;;;;;5033133;28;20960;-51
2022/01/19 09:50:39;;;;;;;11.43;11.13;;;17.80;93.40;;;;;;5032863;28;20460;-49
2022/01/19 09:53:07;;;;;;;13.10;12.60;;;17.90;93.30;;;;;;5032781;28;20441;-51
2022/01/19 09:55:35;;;;;;;11.07;10.67;;;17.90;93.00;;;;;;5032920;28;20449;-55
2022/01/19 09:58:03;;;;;;;11.17;10.87;;;18.00;92.70;;;;;;5032878;28;20452;-52
2022/01/19 10:00:30;;;;;;;11.70;11.30;;;18.00;92.50;;;;;;5032707;28;20800;-53
2022/01/19 10:03:16;;;;;;;11.03;10.73;;;17.90;92.30;;;;;;5032536;28;20822;-53
2022/01/19 10:05:58;;;;;;;11.50;11.20;;;17.90;92.30;;;;;;5032796;28;20453;-50
2022/01/19 10:08:34;;;;;;;12.73;12.33;;;17.90;92.20;;;;;;5032750;28;20456;-50
2022/01/19 10:11:18;;;;;;;11.83;11.53;;;17.80;92.30;;;;;;5032596;28;20559;-53
2022/01/19 10:19:22;;;;;;;11.47;11.07;;;17.80;92.00;;;;;;5032591;28;21056;-50
2022/01/19 10:22:05;;;;;;;11.77;11.47;;;17.80;91.90;;;;;;5032191;28;20465;-48
2022/01/19 10:24:46;;;;;;;11.30;11.00;;;17.70;91.30;;;;;;5032348;28;20492;-52
2022/01/19 10:27:35;;;;;;;10.67;10.37;;;17.70;91.90;;;;;;5032145;28;20451;-56
2022/01/19 10:30:22;;;;;;;11.30;10.90;;;17.60;92.40;;;;;;5032153;28;20817;-49
2022/01/19 10:32:51;;;;;;;11.00;10.70;;;17.70;92.40;;;;;;5032101;28;20460;-52
2022/01/19 10:35:22;;;;;;;10.97;10.67;;;17.90;92.10;;;;;;5032152;28;20433;-51
2022/01/19 10:38:05;;;;;;;10.90;10.60;;;18.30;91.00;;;;;;5032155;28;20445;-50
2022/01/19 10:40:32;;;;;;;11.10;10.80;;;18.50;90.10;;;;;;5032046;28;20449;-53
2022/01/19 10:42:59;;;;;;;11.27;10.97;;;18.60;88.80;;;;;;5031822;28;20445;-51
2022/01/19 10:45:31;;;;;;;12.10;11.77;;;18.70;87.30;;;;;;5032256;28;20456;-56
2022/01/19 10:47:58;;;;;;;11.93;11.53;;;18.70;86.10;;;;;;5031817;28;20756;-47
2022/01/19 10:50:28;;;;;;;11.43;11.13;;;18.80;85.20;;;;;;5031763;28;20450;-48
2022/01/19 10:52:57;;;;;;;12.40;12.00;;;18.80;84.90;;;;;;5031740;28;20444;-50
2022/01/19 10:55:29;;;;;;;12.70;12.23;;;18.80;84.20;;;;;;5031053;28;20460;-50
2022/01/19 10:57:57;;;;;;;12.60;12.20;;;18.80;83.70;;;;;;5031331;28;20477;-54
2022/01/19 11:00:28;;;;;;;12.03;11.63;;;18.70;84.70;;;;;;5031574;28;20468;-49
2022/01/19 11:02:57;;;;;;;13.17;12.47;;;18.50;88.60;;;;;;5031726;28;20446;-51
2022/01/19 11:05:44;;;;;;;12.33;11.93;;;18.40;90.40;;;;;;5031654;28;20484;-49
2022/01/19 11:08:12;;;;;;;12.00;11.60;;;18.30;90.70;;;;;;5031687;28;20475;-49
2022/01/19 11:10:39;;;;;;;11.70;11.40;;;18.30;91.60;;;;;;5031340;28;20958;-52
2022/01/19 11:13:13;;;;;;;13.27;12.77;;;18.30;92.20;;;;;;5030894;28;20441;-54
2022/01/19 11:15:43;;;;;;;11.73;11.43;;;18.30;92.50;;;;;;5031152;28;20453;-53
2022/01/19 11:18:10;;;;;;;11.00;10.70;;;18.30;93.00;;;;;;5031511;28;20799;-48
2022/01/19 11:20:44;;;;;;;11.13;10.83;;;18.30;93.40;;;;;;5031406;28;20842;-51
2022/01/19 11:23:27;;;;;;;11.30;11.00;;;18.30;93.50;;;;;;5031111;28;20445;-53
2022/01/19 11:26:00;;;;;;;12.03;11.73;;;18.30;93.60;;;;;;5031371;28;20448;-51
2022/01/19 11:28:32;;;;;;;11.60;11.30;;;18.30;93.20;;;;;;5031845;28;20868;-50
2022/01/19 11:31:01;;;;;;;13.10;12.60;;;18.20;93.00;;;;;;5031721;28;20469;-53
2022/01/19 11:33:30;;;;;;;12.43;12.00;;;18.10;92.80;;;;;;5031208;28;20445;-48
2022/01/19 11:36:00;;;;;;;13.00;12.53;;;18.10;92.60;;;;;;5031524;28;20456;-48
2022/01/19 11:38:33;;;;;;;12.50;12.07;;;18.00;92.40;;;;;;5031663;28;20452;-52
2022/01/19 11:41:02;;;;;;;13.33;12.70;;;18.00;92.40;;;;;;5031433;28;20465;-50
2022/01/19 11:43:30;;;;;;;13.80;13.30;;;17.90;92.30;;;;;;5031125;28;20457;-49
2022/01/19 11:45:57;;;;;;;12.57;12.20;;;17.90;92.30;;;;;;5031365;28;20511;-48
2022/01/19 11:48:28;;;;;;;10.50;10.20;;;17.90;92.10;;;;;;5031301;28;20978;-50
2022/01/19 11:51:06;;;;;;;11.90;11.40;;;17.90;92.10;;;;;;5031341;28;20473;-50
2022/01/19 11:53:59;;;;;;;11.53;11.20;;;17.90;91.80;;;;;;5031268;28;20445;-49
2022/01/19 11:56:26;;;;;;;11.50;11.20;;;18.00;91.70;;;;;;5031370;28;20993;-51
2022/01/19 11:59:05;;;;;;;14.53;13.93;;;18.00;91.50;;;;;;5031359;28;20449;-50
2022/01/19 12:01:32;;;;;;;12.03;11.73;;;18.00;91.20;;;;;;5033387;28;20531;-51
2022/01/19 12:04:18;;;;;;;12.50;12.10;;;18.00;91.00;;;;;;5035179;28;20483;-55
2022/01/19 12:06:46;;;;;;;12.07;11.77;;;17.90;90.90;;;;;;5035452;28;20440;-51
2022/01/19 12:09:14;;;;;;;12.50;12.10;;;18.00;90.80;;;;;;5035254;28;20499;-50
2022/01/19 12:11:48;;;;;;;11.50;11.20;;;17.90;90.70;;;;;;5034826;28;20488;-52
2022/01/19 12:14:18;;;;;;;12.00;11.70;;;17.90;90.70;;;;;;5035057;28;20437;-52
2022/01/19 12:16:57;;;;;;;12.53;12.13;;;17.80;90.70;;;;;;5034985;28;20490;-48
2022/01/19 12:19:28;;;;;;;12.57;12.17;;;17.70;90.70;;;;;;5034789;28;20440;-53
2022/01/19 12:22:05;;;;;;;12.20;11.80;;;17.60;90.60;;;;;;5034514;28;21025;-53
2022/01/19 12:24:36;;;;;;;12.50;12.10;;;17.70;90.70;;;;;;5034653;28;20575;-54
2022/01/19 12:27:08;;;;;;;12.40;12.10;;;17.70;90.50;;;;;;5034874;28;20467;-48
2022/01/19 12:29:40;;;;;;;11.93;11.53;;;17.60;90.60;;;;;;5034724;28;20456;-50
2022/01/19 12:32:09;;;;;;;11.83;11.53;;;17.60;90.80;;;;;;5034375;28;20473;-50
2022/01/19 12:34:43;;;;;;;12.30;11.90;;;17.70;90.80;;;;;;5034602;28;20463;-51
2022/01/19 12:37:10;;;;;;;11.53;11.23;;;17.80;90.70;;;;;;5034801;28;20452;-49
2022/01/19 12:39:41;;;;;;;11.50;11.20;;;17.90;90.40;;;;;;5034827;28;20453;-52
2022/01/19 12:42:13;;;;;;;11.50;11.20;;;18.00;89.80;;;;;;5034212;28;20469;-48
2022/01/19 12:44:50;;;;;;;11.20;10.90;;;18.10;88.60;;;;;;5034537;28;20577;-52
2022/01/19 12:47:49;;;;;;;11.60;11.30;;;18.20;87.60;;;;;;5034664;28;20476;-52
2022/01/19 12:50:42;;;;;;;11.57;11.27;;;18.30;86.70;;;;;;5034547;28;20919;-48
2022/01/19 12:53:19;;;;;;;11.73;11.40;;;18.30;86.00;;;;;;5010777;28;20860;-52
2022/01/19 12:55:48;;;;;;;11.40;11.10;;;18.30;85.50;;;;;;5034403;28;20440;-51
2022/01/19 12:58:26;;;;;;;12.00;11.60;;;18.20;85.60;;;;;;5034158;28;20449;-50
2022/01/19 13:00:55;;;;;;;12.10;11.70;;;18.20;85.50;;;;;;5034159;28;20471;-51
2022/01/19 13:03:26;;;;;;;12.20;11.80;;;18.10;84.90;;;;;;5033866;28;20813;-50
2022/01/19 13:05:58;;;;;;;12.20;11.80;;;18.10;84.90;;;;;;5033995;28;20854;-48
2022/01/19 13:08:54;;;;;;;11.50;11.20;;;18.10;84.90;;;;;;5034043;28;20452;-48
2022/01/19 13:11:33;;;;;;;11.40;11.10;;;18.00;85.00;;;;;;5033604;28;20967;-46
2022/01/19 13:14:02;;;;;;;12.30;11.90;;;18.00;84.70;;;;;;5033820;28;20445;-46
2022/01/19 13:16:35;;;;;;;12.17;11.77;;;18.00;85.20;;;;;;5033831;28;20456;-46
2022/01/19 13:19:08;;;;;;;12.47;12.07;;;17.90;85.00;;;;;;5033856;28;20449;-46
2022/01/19 13:21:37;;;;;;;13.13;12.53;;;17.90;84.90;;;;;;5033353;28;20465;-45
2022/01/19 13:24:09;;;;;;;14.43;13.83;;;17.90;83.90;;;;;;5033404;28;20456;-45
2022/01/19 13:26:41;;;;;;;12.80;12.40;;;17.80;84.30;;;;;;5033660;28;20471;-46
2022/01/19 13:29:19;;;;;;;11.80;11.47;;;17.80;84.30;;;;;;5033642;28;20441;-47
2022/01/19 13:32:02;;;;;;;12.50;12.10;;;17.80;84.90;;;;;;5033522;28;20890;-46
2022/01/19 13:34:30;;;;;;;12.80;12.40;;;17.70;84.00;;;;;;5033568;28;20445;-50
2022/01/19 13:37:01;;;;;;;13.57;13.07;;;17.70;84.60;;;;;;5033464;28;20823;-50
2022/01/19 13:39:31;;;;;;;11.97;11.67;;;17.70;83.30;;;;;;5033311;28;20453;-48
2022/01/19 13:42:00;;;;;;;14.13;13.63;;;17.70;84.60;;;;;;5033260;28;20523;-47
2022/01/19 13:44:33;;;;;;;11.80;11.50;;;17.70;84.50;;;;;;5033271;28;20487;-46
2022/01/19 13:47:14;;;;;;;12.00;11.60;;;17.70;83.90;;;;;;5033310;28;20540;-47
2022/01/19 13:49:42;;;;;;;11.87;11.57;;;17.70;84.60;;;;;;5033231;28;20476;-48
2022/01/19 13:52:11;;;;;;;13.57;13.07;;;17.70;84.30;;;;;;5054846;22;20491;-50
2022/01/19 13:54:39;;;;;;;12.43;12.03;;;17.70;83.40;;;;;;5043059;28;20547;-47